DLH612 EDDF-UBBB
Flight info
| Callsign | DLH612 |
|---|---|
| Flight time | N/A |
| Altitude | 35000 |
| Route | SULUS7S/18 SULUS Z650 VEMUT DCT DITIS DCT UBUXI DCT BEGLA DCT DEGET DCT UDROS UN743 GAKSU UT310 SIN UN644 ROLIN DCT FOQUS DCT LAGAS DCT DISKA M737 VERCA M747 LUSAL N319 PENOB T447 INSAN |
| Aircraft | A320/M-SDE3FGHIRWY/LB1 |
Departure
| Time | 2026-05-05 08:42 |
|---|---|
| Airport | Frankfurt Main Airport (EDDF) |
Arrival
| Time | N/A |
|---|---|
| Airport | Heydar Aliyev International Airport (UBBB) |
| Time | Latitude | Longitude | Altitude | Speed | Heading |
|---|---|---|---|---|---|
| 2026-05-05 08:18 | 50.04709 | 8.57623 | 378 ft | 0 kts | 24° |
| 2026-05-05 08:26 | 50.04704 | 8.57620 | 379 ft | 2 kts | 22° |
| 2026-05-05 08:26 | 50.04685 | 8.57610 | 379 ft | 3 kts | 10° |
| 2026-05-05 08:26 | 50.04666 | 8.57607 | 379 ft | 3 kts | 350° |
| 2026-05-05 08:26 | 50.04648 | 8.57617 | 379 ft | 3 kts | 309° |
| 2026-05-05 08:27 | 50.04644 | 8.57637 | 379 ft | 2 kts | 249° |
| 2026-05-05 08:28 | 50.04644 | 8.57636 | 378 ft | 0 kts | 249° |
| 2026-05-05 08:30 | 50.04640 | 8.57622 | 378 ft | 2 kts | 248° |
| 2026-05-05 08:30 | 50.04632 | 8.57589 | 378 ft | 4 kts | 249° |
| 2026-05-05 08:30 | 50.04620 | 8.57539 | 378 ft | 0 kts | 250° |
| 2026-05-05 08:30 | 50.04617 | 8.57528 | 378 ft | 2 kts | 250° |
| 2026-05-05 08:31 | 50.04609 | 8.57494 | 378 ft | 5 kts | 250° |
| 2026-05-05 08:31 | 50.04596 | 8.57434 | 378 ft | 7 kts | 249° |
| 2026-05-05 08:31 | 50.04576 | 8.57351 | 378 ft | 9 kts | 251° |
| 2026-05-05 08:31 | 50.04551 | 8.57244 | 378 ft | 12 kts | 249° |
| 2026-05-05 08:32 | 50.04519 | 8.57111 | 378 ft | 14 kts | 250° |
| 2026-05-05 08:32 | 50.04485 | 8.56971 | 378 ft | 14 kts | 249° |
| 2026-05-05 08:32 | 50.04451 | 8.56832 | 378 ft | 14 kts | 249° |
| 2026-05-05 08:32 | 50.04417 | 8.56690 | 378 ft | 14 kts | 249° |
| 2026-05-05 08:33 | 50.04383 | 8.56548 | 378 ft | 14 kts | 250° |
| 2026-05-05 08:33 | 50.04349 | 8.56403 | 378 ft | 14 kts | 250° |
| 2026-05-05 08:33 | 50.04314 | 8.56256 | 378 ft | 14 kts | 249° |
| 2026-05-05 08:33 | 50.04278 | 8.56109 | 378 ft | 15 kts | 249° |
| 2026-05-05 08:34 | 50.04241 | 8.55956 | 378 ft | 15 kts | 249° |
| 2026-05-05 08:34 | 50.04202 | 8.55797 | 378 ft | 16 kts | 249° |
| 2026-05-05 08:34 | 50.04161 | 8.55631 | 378 ft | 17 kts | 249° |
| 2026-05-05 08:34 | 50.04123 | 8.55464 | 378 ft | 17 kts | 251° |
| 2026-05-05 08:35 | 50.04083 | 8.55288 | 378 ft | 17 kts | 250° |
| 2026-05-05 08:35 | 50.04041 | 8.55114 | 378 ft | 17 kts | 249° |
| 2026-05-05 08:35 | 50.03998 | 8.54936 | 378 ft | 18 kts | 250° |
| 2026-05-05 08:35 | 50.03955 | 8.54756 | 378 ft | 18 kts | 249° |
| 2026-05-05 08:36 | 50.03912 | 8.54574 | 378 ft | 18 kts | 250° |
| 2026-05-05 08:36 | 50.03874 | 8.54418 | 378 ft | 14 kts | 248° |
| 2026-05-05 08:36 | 50.03822 | 8.54285 | 378 ft | 15 kts | 235° |
| 2026-05-05 08:36 | 50.03778 | 8.54143 | 378 ft | 15 kts | 250° |
| 2026-05-05 08:37 | 50.03745 | 8.53993 | 378 ft | 15 kts | 250° |
| 2026-05-05 08:37 | 50.03709 | 8.53842 | 378 ft | 15 kts | 249° |
| 2026-05-05 08:37 | 50.03671 | 8.53690 | 378 ft | 15 kts | 249° |
| 2026-05-05 08:37 | 50.03633 | 8.53537 | 378 ft | 15 kts | 249° |
| 2026-05-05 08:38 | 50.03595 | 8.53380 | 378 ft | 15 kts | 250° |
| 2026-05-05 08:38 | 50.03557 | 8.53222 | 378 ft | 16 kts | 249° |
| 2026-05-05 08:38 | 50.03518 | 8.53062 | 378 ft | 16 kts | 249° |
| 2026-05-05 08:38 | 50.03480 | 8.52900 | 378 ft | 16 kts | 250° |
| 2026-05-05 08:39 | 50.03440 | 8.52750 | 378 ft | 11 kts | 247° |
| 2026-05-05 08:39 | 50.03413 | 8.52652 | 378 ft | 9 kts | 248° |
| 2026-05-05 08:39 | 50.03389 | 8.52598 | 378 ft | 6 kts | 195° |
| 2026-05-05 08:39 | 50.03375 | 8.52596 | 378 ft | 0 kts | 180° |
| 2026-05-05 08:41 | 50.03306 | 8.52594 | 378 ft | 37 kts | 179° |
| 2026-05-05 08:41 | 50.02788 | 8.52602 | 378 ft | 110 kts | 179° |
| 2026-05-05 08:41 | 50.01812 | 8.52613 | 379 ft | 167 kts | 179° |
| 2026-05-05 08:41 | 50.00542 | 8.52639 | 687 ft | 184 kts | 179° |
| 2026-05-05 08:42 | 49.99259 | 8.52669 | 1413 ft | 184 kts | 179° |
| 2026-05-05 08:42 | 49.97993 | 8.52678 | 2188 ft | 179 kts | 179° |
| 2026-05-05 08:42 | 49.96773 | 8.52983 | 2712 ft | 182 kts | 154° |
| 2026-05-05 08:42 | 49.95870 | 8.54385 | 2976 ft | 194 kts | 117° |
| 2026-05-05 08:43 | 49.95262 | 8.56327 | 3361 ft | 205 kts | 115° |
| 2026-05-05 08:43 | 49.94660 | 8.58385 | 3839 ft | 211 kts | 115° |
| 2026-05-05 08:43 | 49.94083 | 8.60544 | 4220 ft | 225 kts | 105° |
| 2026-05-05 08:43 | 49.93863 | 8.63043 | 4559 ft | 243 kts | 93° |
| 2026-05-05 08:44 | 49.93839 | 8.65727 | 5051 ft | 256 kts | 91° |
| 2026-05-05 08:44 | 49.93647 | 8.68536 | 5529 ft | 268 kts | 109° |
| 2026-05-05 08:44 | 49.92678 | 8.71001 | 6105 ft | 272 kts | 139° |
| 2026-05-05 08:44 | 49.91158 | 8.72729 | 6879 ft | 273 kts | 148° |
| 2026-05-05 08:45 | 49.89548 | 8.74305 | 7622 ft | 275 kts | 149° |
| 2026-05-05 08:45 | 49.88074 | 8.76234 | 8302 ft | 283 kts | 130° |
| 2026-05-05 08:45 | 49.87019 | 8.78828 | 8998 ft | 288 kts | 121° |
| 2026-05-05 08:45 | 49.86106 | 8.81615 | 9688 ft | 291 kts | 119° |
| 2026-05-05 08:46 | 49.85191 | 8.84432 | 10330 ft | 296 kts | 120° |
| 2026-05-05 08:46 | 49.84198 | 8.87301 | 10726 ft | 309 kts | 122° |
| 2026-05-05 08:46 | 49.83116 | 8.90259 | 11095 ft | 323 kts | 123° |
| 2026-05-05 08:46 | 49.81967 | 8.93341 | 11424 ft | 337 kts | 123° |
| 2026-05-05 08:47 | 49.80783 | 8.96542 | 11879 ft | 346 kts | 122° |
| 2026-05-05 08:47 | 49.79601 | 8.99789 | 12506 ft | 348 kts | 122° |
| 2026-05-05 08:47 | 49.78409 | 9.03071 | 13105 ft | 351 kts | 123° |
| 2026-05-05 08:47 | 49.77200 | 9.06394 | 13673 ft | 355 kts | 123° |
| 2026-05-05 08:48 | 49.76101 | 9.09839 | 14218 ft | 362 kts | 113° |
| 2026-05-05 08:48 | 49.75379 | 9.13587 | 14791 ft | 367 kts | 108° |
| 2026-05-05 08:48 | 49.74783 | 9.17443 | 15328 ft | 371 kts | 106° |
| 2026-05-05 08:48 | 49.74223 | 9.21367 | 15855 ft | 374 kts | 106° |
| 2026-05-05 08:49 | 49.73644 | 9.25306 | 16375 ft | 377 kts | 107° |
| 2026-05-05 08:49 | 49.73024 | 9.29254 | 16877 ft | 380 kts | 108° |
| 2026-05-05 08:49 | 49.72368 | 9.33211 | 17362 ft | 383 kts | 108° |
| 2026-05-05 08:49 | 49.71694 | 9.37215 | 17853 ft | 385 kts | 108° |
| 2026-05-05 08:50 | 49.71025 | 9.41238 | 18316 ft | 388 kts | 108° |
| 2026-05-05 08:50 | 49.70358 | 9.45298 | 18767 ft | 391 kts | 108° |
| 2026-05-05 08:50 | 49.69695 | 9.49372 | 19205 ft | 394 kts | 108° |
| 2026-05-05 08:50 | 49.69022 | 9.53489 | 19636 ft | 396 kts | 108° |
| 2026-05-05 08:51 | 49.68343 | 9.57623 | 20053 ft | 399 kts | 108° |
| 2026-05-05 08:51 | 49.67815 | 9.61865 | 20446 ft | 406 kts | 97° |
| 2026-05-05 08:51 | 49.68019 | 9.66250 | 20840 ft | 415 kts | 82° |